Time;durP1;ratioP1;P1;durP2;ratioP2;P2;SDS_P1;SDS_P2;PMS_P1;PMS_P2;Temp;Humidity;BMP_temperature;BMP_pressure;BME280_temperature;BME280_humidity;BME280_pressure;Samples;Min_cycle;Max_cycle;Signal;HPM_P1;HPM_P2
2022/08/19 00:01:37;;;;;;;13.45;10.75;;;19.80;99.90;;;19.67;94.49;96808.22;5031194;28;20045;-45
2022/08/19 00:04:08;;;;;;;17.45;12.38;;;19.80;99.90;;;19.65;93.13;96809.22;5032398;28;20072;-46
2022/08/19 00:06:35;;;;;;;12.50;10.80;;;19.80;99.90;;;19.65;93.76;96819.06;5029540;28;20658;-45
2022/08/19 00:09:04;;;;;;;16.92;12.50;;;19.80;99.90;;;19.67;94.13;96801.06;5030488;28;20501;-48
2022/08/19 00:11:30;;;;;;;12.90;11.30;;;19.80;99.90;;;19.63;94.19;96802.28;5031078;28;20127;-46
2022/08/19 00:13:56;;;;;;;12.60;10.18;;;19.70;99.90;;;19.63;94.30;96811.16;5030632;28;20124;-44
2022/08/19 00:16:24;;;;;;;15.95;11.30;;;19.70;99.90;;;19.62;93.77;96814.81;5030807;28;20120;-50
2022/08/19 00:18:50;;;;;;;14.52;11.63;;;19.70;99.90;;;19.61;94.09;96814.94;5030527;28;20033;-46
2022/08/19 00:21:16;;;;;;;12.88;10.63;;;19.70;99.90;;;19.62;93.78;96820.16;5010769;28;20331;-47
2022/08/19 00:23:42;;;;;;;18.48;12.20;;;19.70;99.90;;;19.59;93.34;96808.88;5030755;28;20124;-47
2022/08/19 00:26:11;;;;;;;15.82;13.13;;;19.80;99.90;;;19.63;93.18;96816.53;5026343;28;20033;-45
2022/08/19 00:28:37;;;;;;;13.20;11.10;;;19.70;99.90;;;19.64;93.56;96815.53;5031610;28;20029;-48
2022/08/19 00:31:05;;;;;;;14.57;11.07;;;19.70;99.90;;;19.63;93.69;96816.53;5029350;28;20041;-46
2022/08/19 00:33:32;;;;;;;18.40;11.35;;;19.80;99.90;;;19.62;93.66;96801.44;5028155;28;20505;-45
2022/08/19 00:36:04;;;;;;;13.57;11.00;;;19.80;99.90;;;19.61;93.94;96802.44;5031172;28;20032;-51
2022/08/19 00:38:30;;;;;;;13.73;11.07;;;19.70;99.90;;;19.58;94.66;96789.31;5028205;28;20044;-47
2022/08/19 00:40:56;;;;;;;14.50;11.70;;;19.70;99.90;;;19.44;94.14;96766.38;5010659;28;20052;-48
2022/08/19 00:43:25;;;;;;;13.68;11.55;;;19.70;99.90;;;19.55;94.32;96778.84;5030153;28;20025;-48
2022/08/19 00:45:52;;;;;;;16.17;11.75;;;19.70;99.90;;;19.55;94.25;96775.34;5028122;28;20116;-47
2022/08/19 00:48:19;;;;;;;16.60;11.88;;;19.70;99.90;;;19.50;93.83;96770.34;5026242;28;20048;-44
2022/08/19 00:50:46;;;;;;;13.77;11.30;;;19.70;99.90;;;19.55;94.21;96794.91;5028740;28;20021;-45
2022/08/19 00:53:17;;;;;;;14.45;11.15;;;19.70;99.90;;;19.54;94.50;96790.53;5030749;28;20580;-48
2022/08/19 00:55:46;;;;;;;16.70;12.93;;;19.60;99.90;;;19.53;93.57;96788.81;5028331;28;20120;-45
2022/08/19 00:58:16;;;;;;;13.65;11.20;;;19.60;99.90;;;19.52;94.28;96796.97;5010785;28;20342;-45
2022/08/19 01:00:42;;;;;;;17.92;11.95;;;19.70;99.90;;;19.48;94.44;96796.38;5009445;28;20473;-45
2022/08/19 01:03:11;;;;;;;14.57;10.88;;;19.60;99.90;;;19.53;94.54;96809.38;5031838;28;20298;-46
2022/08/19 01:05:39;;;;;;;14.18;11.20;;;19.60;99.90;;;19.45;94.71;96793.94;5029635;28;20034;-46
2022/08/19 01:08:07;;;;;;;16.10;11.43;;;19.60;99.90;;;19.51;94.20;96806.84;5012627;28;20557;-45
2022/08/19 01:10:40;;;;;;;13.27;11.52;;;19.60;99.90;;;19.49;94.73;96803.44;5029603;28;20047;-45
2022/08/19 01:13:06;;;;;;;15.63;10.90;;;19.60;99.90;;;19.48;94.85;96807.06;5012740;28;20068;-45
2022/08/19 01:15:40;;;;;;;15.30;10.98;;;19.60;99.90;;;19.48;94.75;96801.72;5010910;28;20033;-46
2022/08/19 01:18:08;;;;;;;13.45;11.00;;;19.60;99.90;;;19.48;94.97;96796.38;5010902;28;20025;-45
2022/08/19 01:20:34;;;;;;;17.17;12.43;;;19.60;99.90;;;19.48;95.03;96795.53;5027521;28;20036;-45
2022/08/19 01:23:02;;;;;;;14.88;11.30;;;19.60;99.90;;;19.48;94.94;96798.22;5029933;28;20563;-47
2022/08/19 01:25:40;;;;;;;14.82;10.98;;;19.60;99.90;;;19.45;95.74;96794.81;5030012;28;20056;-46
2022/08/19 01:28:07;;;;;;;16.17;12.00;;;19.60;99.90;;;19.44;95.34;96797.63;4997817;28;20488;-46
2022/08/19 01:30:35;;;;;;;14.65;11.77;;;19.60;99.90;;;19.41;95.53;96792.50;5028240;28;20551;-47
2022/08/19 01:33:03;;;;;;;15.73;12.15;;;19.60;99.90;;;19.41;95.54;96797.88;5026918;28;20478;-50
2022/08/19 01:35:31;;;;;;;15.00;11.63;;;19.50;99.90;;;19.38;96.13;96787.41;5029644;28;20033;-49
2022/08/19 01:38:05;;;;;;;18.30;13.55;;;19.50;99.90;;;19.38;95.47;96782.94;5033571;28;20550;-47
2022/08/19 01:40:35;;;;;;;15.65;11.90;;;19.50;99.90;;;19.38;96.38;96782.94;5014547;28;20036;-48
2022/08/19 01:43:02;;;;;;;18.58;13.20;;;19.50;99.90;;;19.38;95.30;96782.06;5034779;28;20025;-46
2022/08/19 01:45:30;;;;;;;15.07;12.23;;;19.50;99.90;;;19.35;96.28;96787.69;5013184;28;20041;-45
2022/08/19 01:47:58;;;;;;;16.25;11.95;;;19.50;99.90;;;19.37;95.97;96796.44;5034985;28;20051;-46
2022/08/19 01:50:24;;;;;;;17.95;13.27;;;19.50;99.90;;;19.35;95.83;96785.84;5037299;22;20058;-57
2022/08/19 01:52:50;;;;;;;16.08;12.57;;;19.50;99.90;;;19.37;95.91;96785.72;5015490;28;20025;-57
2022/08/19 01:55:20;;;;;;;15.68;12.40;;;19.50;99.90;;;19.35;96.05;96783.19;4997733;28;20052;-57
2022/08/19 01:57:50;;;;;;;17.17;12.05;;;19.50;99.90;;;19.34;96.82;96784.13;5016467;28;20520;-57
2022/08/19 02:00:20;;;;;;;15.73;12.27;;;19.50;99.90;;;19.33;96.90;96785.13;4997683;28;20070;-58
2022/08/19 02:02:45;;;;;;;20.83;13.77;;;19.40;99.90;;;19.32;96.89;96791.44;4998172;28;20076;-57
2022/08/19 02:05:12;;;;;;;17.67;13.32;;;19.40;99.90;;;19.31;97.05;96803.13;5014027;28;20033;-57
2022/08/19 02:07:40;;;;;;;15.20;12.82;;;19.40;99.90;;;19.32;96.73;96801.28;5014805;28;20041;-57
2022/08/19 02:10:12;;;;;;;15.57;12.48;;;19.50;99.90;;;19.31;96.88;96802.25;5009948;28;20066;-58
2022/08/19 02:12:38;;;;;;;16.60;13.73;;;19.40;99.90;;;19.30;97.59;96804.09;5011909;28;20049;-57
2022/08/19 02:15:05;;;;;;;17.05;12.57;;;19.40;99.90;;;19.31;97.88;96796.91;5013834;28;20058;-58
2022/08/19 02:17:31;;;;;;;17.60;13.55;;;19.40;99.90;;;19.30;97.83;96787.22;4993852;28;20500;-57
2022/08/19 02:19:57;;;;;;;16.60;13.10;;;19.40;99.90;;;19.25;98.14;96782.22;5011470;28;20046;-57
2022/08/19 02:22:25;;;;;;;17.38;12.90;;;19.40;99.90;;;19.24;98.69;96778.72;5012256;28;20017;-57
2022/08/19 02:28:32;;;;;;;19.42;14.00;;;19.30;99.90;;;19.18;98.91;96787.22;4999535;28;20095;-58
2022/08/19 02:31:00;;;;;;;16.92;13.25;;;19.30;99.90;;;19.17;99.41;96784.69;5008467;28;20482;-57
2022/08/19 02:33:27;;;;;;;20.75;13.95;;;19.30;99.90;;;19.16;100.00;96791.84;5013684;28;20346;-57
2022/08/19 02:35:52;;;;;;;19.52;14.10;;;19.30;99.90;;;19.15;100.00;96794.63;5012152;28;20030;-57
2022/08/19 02:38:27;;;;;;;17.80;13.75;;;19.30;99.90;;;19.13;100.00;96792.13;5010765;28;20033;-57
2022/08/19 02:41:01;;;;;;;19.30;15.10;;;19.30;99.90;;;19.13;100.00;96788.56;5011831;28;20219;-57
2022/08/19 02:43:29;;;;;;;19.00;14.05;;;19.20;99.90;;;19.09;100.00;96793.31;4994856;28;20537;-57
2022/08/19 02:45:55;;;;;;;18.75;14.07;;;19.20;99.90;;;19.02;100.00;96781.44;5013674;28;20025;-57
2022/08/19 02:48:24;;;;;;;18.30;13.75;;;19.20;99.90;;;19.03;100.00;96785.81;5011384;28;20076;-57
2022/08/19 02:50:54;;;;;;;19.52;14.90;;;19.20;99.90;;;19.01;100.00;96788.59;5006607;28;20037;-57
2022/08/19 02:53:22;;;;;;;23.40;15.25;;;19.20;99.90;;;18.96;100.00;96771.25;5013328;28;20041;-57
2022/08/19 02:55:49;;;;;;;19.65;14.50;;;19.10;99.90;;;18.97;100.00;96786.28;5012798;28;20029;-57
2022/08/19 02:58:15;;;;;;;18.83;14.45;;;19.10;99.90;;;18.94;100.00;96781.22;5012662;28;20034;-57
2022/08/19 03:00:48;;;;;;;20.13;15.30;;;19.10;99.90;;;18.93;100.00;96777.66;5011913;28;20038;-57
2022/08/19 03:03:15;;;;;;;21.13;15.23;;;19.10;99.90;;;18.92;100.00;96765.31;5012588;28;20025;-57
2022/08/19 03:05:41;;;;;;;21.27;14.82;;;19.10;99.90;;;18.91;100.00;96765.41;5011461;28;20489;-57
2022/08/19 03:08:09;;;;;;;20.35;15.02;;;19.00;99.90;;;18.87;100.00;96768.34;5014158;28;20033;-58
2022/08/19 03:10:43;;;;;;;18.70;14.63;;;19.00;99.90;;;18.84;100.00;96768.59;5010060;28;20120;-57
2022/08/19 03:13:11;;;;;;;21.38;15.77;;;19.00;99.90;;;18.81;100.00;96784.88;5010557;28;20037;-57
2022/08/19 03:15:42;;;;;;;22.17;15.93;;;19.00;99.90;;;18.74;100.00;96780.13;5010684;28;20132;-57
2022/08/19 03:18:08;;;;;;;23.27;16.73;;;18.90;99.90;;;18.78;100.00;96786.91;5010768;28;20029;-57
2022/08/19 03:20:34;;;;;;;24.27;16.85;;;18.90;99.90;;;18.72;100.00;96787.38;5014824;28;20026;-57
2022/08/19 03:22:59;;;;;;;23.27;17.52;;;18.90;99.90;;;18.64;100.00;96799.50;5015196;28;20025;-57
2022/08/19 03:25:25;;;;;;;21.33;17.17;;;18.80;99.90;;;18.55;100.00;96797.56;5014327;28;20038;-57
2022/08/19 03:27:51;;;;;;;24.05;17.75;;;18.70;99.90;;;18.47;100.00;96792.84;5015877;28;20382;-57
2022/08/19 03:30:16;;;;;;;23.23;17.80;;;18.70;99.90;;;18.39;100.00;96787.25;5011171;28;20026;-57
2022/08/19 03:32:43;;;;;;;21.73;17.25;;;18.60;99.90;;;18.34;100.00;96780.56;5014423;28;20130;-57
2022/08/19 03:35:09;;;;;;;25.73;18.73;;;18.50;99.90;;;18.25;100.00;96788.34;5007034;28;20037;-58
2022/08/19 03:37:34;;;;;;;22.98;16.92;;;18.50;99.90;;;18.21;100.00;96791.38;5012940;28;20034;-58
2022/08/19 03:40:03;;;;;;;23.42;17.70;;;18.40;99.90;;;18.18;100.00;96808.47;5013894;28;20029;-57
2022/08/19 03:42:29;;;;;;;24.02;18.10;;;18.40;99.90;;;18.10;100.00;96801.03;5012659;28;20033;-58
2022/08/19 03:44:54;;;;;;;25.02;18.77;;;18.30;99.90;;;18.05;100.00;96789.91;5011899;28;20113;-57
2022/08/19 03:47:20;;;;;;;28.08;18.60;;;18.30;99.90;;;18.02;100.00;96792.78;5013279;28;20524;-57
2022/08/19 03:49:46;;;;;;;25.33;19.25;;;18.20;99.90;;;18.00;100.00;96788.53;5011571;28;20079;-57
2022/08/19 03:52:12;;;;;;;26.08;19.38;;;18.20;99.90;;;17.96;100.00;96787.06;5010476;28;20038;-57
2022/08/19 03:54:38;;;;;;;26.65;19.40;;;18.20;99.90;;;17.98;100.00;96788.66;5012837;28;20030;-57
2022/08/19 03:57:04;;;;;;;26.17;19.95;;;18.20;99.90;;;18.00;100.00;96797.41;5014438;28;20038;-57
2022/08/19 03:59:33;;;;;;;23.15;17.95;;;18.20;99.90;;;17.86;100.00;96776.25;5012404;28;20035;-57
2022/08/19 04:02:03;;;;;;;24.15;18.35;;;18.20;99.90;;;17.97;100.00;96805.63;5012116;28;20116;-57
2022/08/19 04:04:29;;;;;;;25.38;19.42;;;18.20;99.90;;;17.99;100.00;96798.34;4992611;28;20927;-57
2022/08/19 04:06:56;;;;;;;26.23;19.23;;;18.20;99.90;;;18.01;100.00;96795.56;5013236;28;20060;-58
2022/08/19 04:09:22;;;;;;;27.60;19.25;;;18.20;99.90;;;18.02;100.00;96799.94;5012675;28;20033;-57
2022/08/19 04:11:53;;;;;;;24.85;19.42;;;18.20;99.90;;;18.01;100.00;96799.06;4991932;28;20048;-57
2022/08/19 04:14:22;;;;;;;22.55;17.67;;;18.20;99.90;;;18.05;100.00;96805.91;5009270;28;20045;-57
2022/08/19 04:16:48;;;;;;;23.75;18.02;;;18.20;99.90;;;18.06;100.00;96799.59;5008520;28;20033;-58
2022/08/19 04:19:16;;;;;;;28.35;19.33;;;18.30;99.90;;;18.09;100.00;96802.03;5011237;28;20092;-57
2022/08/19 04:21:47;;;;;;;25.73;18.80;;;18.30;99.90;;;18.09;100.00;96798.50;4993935;28;20061;-57
2022/08/19 04:24:14;;;;;;;23.63;18.02;;;18.30;99.90;;;18.10;100.00;96801.03;5012388;28;20033;-57
2022/08/19 04:26:40;;;;;;;24.63;19.05;;;18.30;99.90;;;18.12;100.00;96793.78;5011781;28;20088;-57
2022/08/19 04:29:17;;;;;;;24.98;19.33;;;18.30;99.90;;;18.16;100.00;96794.41;5012111;28;20486;-57
2022/08/19 04:31:44;;;;;;;25.77;19.52;;;18.30;99.90;;;18.18;100.00;96796.94;5014091;28;20128;-57
2022/08/19 04:34:12;;;;;;;25.75;18.20;;;18.40;99.90;;;18.20;100.00;96787.84;5013014;28;20026;-57
2022/08/19 04:36:41;;;;;;;28.85;18.38;;;18.40;99.90;;;18.21;100.00;96794.03;5012652;28;20088;-57
2022/08/19 04:39:11;;;;;;;27.67;19.40;;;18.40;99.90;;;18.22;100.00;96785.06;5012297;28;20033;-57
2022/08/19 04:44:22;;;;;;;22.58;18.05;;;18.40;99.90;;;18.26;100.00;96790.03;5010135;28;20099;-57
2022/08/19 04:46:49;;;;;;;26.05;17.23;;;18.40;99.90;;;18.29;100.00;96803.16;5013717;28;20026;-57
2022/08/19 04:49:18;;;;;;;23.02;18.33;;;18.50;99.90;;;18.31;100.00;96800.34;5010941;28;20026;-57
2022/08/19 04:51:47;;;;;;;24.52;18.55;;;18.50;99.90;;;18.35;100.00;96807.16;5009416;28;20033;-57
2022/08/19 04:54:14;;;;;;;22.58;18.13;;;18.50;99.90;;;18.40;100.00;96806.81;5008740;28;20053;-58
2022/08/19 04:56:40;;;;;;;30.38;21.30;;;18.60;99.90;;;18.41;100.00;96806.69;5009319;28;20034;-57
2022/08/19 04:59:08;;;;;;;23.58;17.50;;;18.60;99.90;;;18.44;100.00;96814.44;5013751;28;20485;-58
2022/08/19 05:01:35;;;;;;;27.45;19.48;;;18.60;99.90;;;18.48;100.00;96812.38;5011110;28;20029;-57
2022/08/19 05:04:04;;;;;;;25.70;18.58;;;18.60;99.90;;;18.49;100.00;96808.75;5009262;28;20233;-57
2022/08/19 05:06:32;;;;;;;23.83;18.50;;;18.60;99.90;;;18.49;100.00;96808.75;4992207;28;20044;-57
2022/08/19 05:08:58;;;;;;;21.63;17.92;;;18.70;99.90;;;18.57;100.00;96808.13;5011437;28;20040;-57
2022/08/19 05:11:34;;;;;;;25.63;20.33;;;18.70;99.90;;;18.59;100.00;96811.53;5006951;28;20045;-57
2022/08/19 05:14:00;;;;;;;25.25;18.90;;;18.80;99.90;;;18.62;100.00;96819.31;5011797;28;20041;-58
2022/08/19 05:16:27;;;;;;;27.77;18.35;;;18.80;99.90;;;18.63;100.00;96823.69;4997379;28;20375;-57
2022/08/19 05:24:25;;;;;;;28.63;21.40;;;18.80;99.90;;;18.72;100.00;96844.34;4999978;28;20425;-57
2022/08/19 05:26:56;;;;;;;25.00;18.95;;;18.90;99.90;;;18.76;100.00;96859.13;5015802;28;20034;-57
2022/08/19 05:29:23;;;;;;;26.65;18.98;;;18.90;99.90;;;18.78;100.00;96864.38;5014627;28;20025;-57
2022/08/19 05:31:50;;;;;;;22.45;16.30;;;18.90;99.90;;;18.82;100.00;96887.22;5012596;28;20025;-57
2022/08/19 05:34:21;;;;;;;26.67;19.65;;;18.90;99.90;;;18.85;100.00;96890.50;5015276;28;20033;-57
2022/08/19 05:36:47;;;;;;;22.48;17.55;;;19.00;99.90;;;18.89;100.00;96899.97;5016403;28;20021;-57
2022/08/19 05:39:19;;;;;;;20.15;16.00;;;19.00;99.90;;;18.91;100.00;96907.03;5011668;28;20038;-57
2022/08/19 05:41:52;;;;;;;24.05;19.48;;;19.10;99.90;;;18.88;100.00;96894.75;4998094;28;20112;-58
2022/08/19 05:44:20;;;;;;;25.00;19.98;;;19.10;99.90;;;18.94;100.00;96904.97;5013597;28;20647;-57
2022/08/19 05:46:52;;;;;;;22.08;17.83;;;19.10;99.90;;;18.91;100.00;96891.00;4999288;28;20489;-57
2022/08/19 05:49:19;;;;;;;22.52;17.80;;;19.10;99.90;;;18.94;100.00;96901.44;5015949;28;20034;-57
2022/08/19 05:51:44;;;;;;;23.00;16.77;;;19.10;99.90;;;18.94;100.00;96890.75;5016428;28;20112;-57
2022/08/19 05:54:13;;;;;;;18.55;15.52;;;19.10;99.90;;;18.90;100.00;96890.16;5016376;28;20076;-58
2022/08/19 05:56:42;;;;;;;21.80;17.25;;;19.10;99.90;;;18.96;100.00;96904.84;5015875;28;20509;-57
2022/08/19 05:59:11;;;;;;;24.17;17.90;;;19.10;99.90;;;18.96;100.00;96896.81;5016172;28;20089;-57
2022/08/19 06:01:43;;;;;;;27.30;20.40;;;19.10;99.90;;;18.95;100.00;96893.31;5014936;28;20048;-58
2022/08/19 06:04:09;;;;;;;21.85;17.55;;;19.10;99.90;;;18.94;100.00;96888.94;5015726;28;20541;-58
2022/08/19 06:06:35;;;;;;;24.60;18.10;;;19.10;99.90;;;18.97;100.00;96890.50;5016315;28;20141;-57
2022/08/19 06:09:04;;;;;;;21.83;16.70;;;19.10;99.90;;;18.98;100.00;96890.38;5015797;28;20100;-57
2022/08/19 06:11:49;;;;;;;20.10;16.33;;;19.20;99.90;;;19.00;100.00;96895.59;5016384;28;20021;-57
2022/08/19 06:14:19;;;;;;;23.08;17.63;;;19.10;99.90;;;18.99;100.00;96896.59;5014476;28;20351;-57
2022/08/19 06:16:45;;;;;;;22.13;17.45;;;19.10;99.90;;;18.98;100.00;96901.06;5014697;28;20029;-57
2022/08/19 06:19:17;;;;;;;19.60;16.08;;;19.20;99.90;;;19.03;100.00;96906.06;5014972;28;20542;-57
2022/08/19 06:21:46;;;;;;;27.23;20.23;;;19.20;99.90;;;19.03;100.00;96898.88;4997881;28;20509;-57
2022/08/19 06:24:16;;;;;;;20.52;16.10;;;19.20;99.90;;;19.05;100.00;96891.59;5014498;28;20018;-57
2022/08/19 06:26:44;;;;;;;25.30;17.65;;;19.20;99.90;;;19.13;100.00;96892.81;5016458;28;20046;-57
2022/08/19 06:29:14;;;;;;;26.20;19.65;;;19.30;99.90;;;19.14;100.00;96889.16;5015226;28;20033;-58
2022/08/19 06:31:44;;;;;;;20.33;16.70;;;19.30;99.90;;;19.17;100.00;96892.44;5015432;28;20030;-58
2022/08/19 06:34:10;;;;;;;22.52;17.33;;;19.30;99.90;;;19.20;100.00;96894.88;5014458;28;20381;-57
2022/08/19 06:36:41;;;;;;;23.50;17.05;;;19.30;99.90;;;19.24;100.00;96895.50;5014815;28;20026;-58
2022/08/19 06:39:12;;;;;;;24.02;18.90;;;19.40;99.90;;;19.22;100.00;96898.28;4997012;28;20253;-57
2022/08/19 06:41:42;;;;;;;25.58;19.15;;;19.40;99.90;;;19.27;100.00;96905.91;5012929;28;20022;-58
2022/08/19 06:44:08;;;;;;;20.70;17.08;;;19.40;99.90;;;19.26;100.00;96897.06;5012223;28;20030;-58
2022/08/19 06:46:34;;;;;;;21.27;16.77;;;19.40;99.90;;;19.31;100.00;96909.19;5016140;28;20099;-58
2022/08/19 06:49:00;;;;;;;21.85;17.30;;;19.40;99.90;;;19.27;100.00;96898.75;4998557;28;20478;-57
2022/08/19 06:51:26;;;;;;;26.63;19.00;;;19.40;99.90;;;19.23;100.00;96907.13;5014597;28;20034;-57
2022/08/19 06:53:54;;;;;;;26.20;20.27;;;19.40;99.90;;;19.15;100.00;96902.41;5012975;28;20929;-57
2022/08/19 06:56:34;;;;;;;21.88;17.45;;;19.30;99.90;;;19.11;100.00;96900.94;5013417;28;20501;-57
2022/08/19 06:59:05;;;;;;;25.70;18.10;;;19.30;99.90;;;19.05;100.00;96898.75;5014262;28;20029;-57
2022/08/19 07:01:46;;;;;;;24.00;19.48;;;19.20;99.90;;;19.00;100.00;96907.13;5016626;28;20100;-57
2022/08/19 07:04:15;;;;;;;25.17;19.80;;;19.10;99.90;;;18.93;100.00;96905.06;5015650;28;20030;-57
2022/08/19 07:06:41;;;;;;;24.45;18.70;;;19.10;99.90;;;18.88;100.00;96908.97;5015208;28;20087;-55
2022/08/19 07:09:10;;;;;;;27.05;20.02;;;19.00;99.90;;;18.86;100.00;96910.91;5014056;28;20094;-58
2022/08/19 07:11:36;;;;;;;27.50;19.02;;;19.00;99.90;;;18.84;100.00;96906.63;5010738;28;20101;-58
2022/08/19 07:14:02;;;;;;;27.27;20.08;;;19.00;99.90;;;18.80;100.00;96916.69;5012607;28;20025;-58
2022/08/19 07:16:28;;;;;;;24.02;17.83;;;19.00;99.90;;;18.76;100.00;96919.72;5014557;28;20101;-58
2022/08/19 07:18:56;;;;;;;25.15;19.40;;;18.90;99.90;;;18.76;100.00;96909.88;5013057;28;20054;-57
2022/08/19 07:21:28;;;;;;;25.27;21.80;;;18.90;99.90;;;18.79;100.00;96923.00;5013428;28;20342;-57
2022/08/19 07:23:56;;;;;;;23.48;18.27;;;19.00;99.90;;;18.81;100.00;96928.25;5016529;28;20026;-58
2022/08/19 07:26:27;;;;;;;22.70;18.05;;;18.90;99.90;;;18.81;100.00;96925.56;5013435;28;20772;-58
2022/08/19 07:28:52;;;;;;;22.90;18.90;;;18.90;99.90;;;18.81;100.00;96925.56;5015925;28;20048;-56
2022/08/19 07:31:22;;;;;;;24.83;19.17;;;19.00;99.90;;;18.80;100.00;96915.84;5012437;28;20422;-57
2022/08/19 07:33:51;;;;;;;26.05;18.80;;;18.90;99.90;;;18.80;100.00;96910.50;5014061;28;20046;-58
2022/08/19 07:36:22;;;;;;;23.17;18.65;;;19.00;99.90;;;18.75;100.00;96923.34;5012668;28;20032;-57
2022/08/19 07:38:50;;;;;;;21.98;17.60;;;18.90;99.90;;;18.74;100.00;96921.69;5014444;28;20025;-58
2022/08/19 07:41:22;;;;;;;25.85;18.42;;;18.90;99.90;;;18.71;100.00;96925.41;5012486;28;20541;-57
2022/08/19 07:43:49;;;;;;;20.65;17.25;;;18.90;99.90;;;18.58;100.00;96906.81;5011599;28;20065;-58
2022/08/19 07:46:17;;;;;;;20.10;16.83;;;18.90;99.90;;;18.72;100.00;96918.25;5011780;28;20046;-57
2022/08/19 07:48:46;;;;;;;22.85;18.65;;;18.90;99.90;;;18.72;100.00;96918.25;4996396;28;20034;-57
2022/08/19 07:51:13;;;;;;;22.48;17.80;;;18.90;99.90;;;18.79;100.00;96924.81;5043700;22;20037;-46
2022/08/19 07:53:39;;;;;;;22.05;16.15;;;18.90;99.90;;;18.83;100.00;96923.66;5035760;28;20037;-45
2022/08/19 07:56:05;;;;;;;21.65;16.98;;;19.00;99.90;;;18.87;100.00;96922.44;5037016;28;20345;-47
2022/08/19 07:58:35;;;;;;;22.55;16.67;;;19.00;99.90;;;18.88;100.00;96918.81;5038819;28;20401;-46
2022/08/19 08:01:01;;;;;;;24.00;17.77;;;19.00;99.90;;;18.84;100.00;96922.66;5034364;28;20477;-46
2022/08/19 08:09:15;;;;;;;24.23;15.48;;;19.10;99.90;;;18.88;100.00;96930.34;5031856;28;20515;-47
2022/08/19 08:11:52;;;;;;;19.25;15.48;;;19.10;99.90;;;18.90;100.00;96935.56;5032349;28;20083;-45
2022/08/19 08:14:32;;;;;;;20.30;15.15;;;19.00;99.90;;;18.93;100.00;96939.81;5035204;28;20085;-44
2022/08/19 08:16:59;;;;;;;25.13;18.63;;;19.10;99.90;;;18.91;100.00;96947.09;5032260;28;20119;-45
2022/08/19 08:19:27;;;;;;;21.05;16.88;;;19.10;99.90;;;18.94;100.00;96945.03;5032372;28;20033;-46
2022/08/19 08:21:57;;;;;;;21.77;16.50;;;19.10;99.90;;;18.95;100.00;96945.88;5032784;28;20057;-45
2022/08/19 08:24:24;;;;;;;18.17;15.20;;;19.10;99.90;;;19.00;100.00;96939.19;5034641;28;20522;-45
2022/08/19 08:26:50;;;;;;;19.08;16.13;;;19.10;99.90;;;19.01;100.00;96946.25;5016119;28;20033;-45
2022/08/19 08:29:16;;;;;;;21.98;16.10;;;19.20;99.90;;;19.08;100.00;96942.13;5033418;28;20372;-47
2022/08/19 08:31:44;;;;;;;19.17;16.13;;;19.20;99.90;;;19.12;100.00;96933.88;5033230;28;20025;-48
2022/08/19 08:34:12;;;;;;;18.02;14.75;;;19.30;99.90;;;19.20;100.00;96940.31;5016517;28;20033;-46
2022/08/19 08:36:45;;;;;;;21.67;16.10;;;19.30;99.90;;;19.24;100.00;96936.44;5033180;28;20041;-46
2022/08/19 08:39:14;;;;;;;25.55;17.05;;;19.40;99.90;;;19.20;100.00;96932.31;5034254;28;20032;-46
2022/08/19 08:41:53;;;;;;;20.75;15.85;;;19.40;99.90;;;19.24;100.00;96940.94;5032324;28;20026;-45
2022/08/19 08:44:58;;;;;;;19.60;15.13;;;19.40;99.90;;;19.32;100.00;96948.34;5017475;28;20041;-45
2022/08/19 08:47:27;;;;;;;17.67;14.73;;;19.50;99.90;;;19.37;100.00;96951.50;5032570;28;20080;-48
2022/08/19 08:50:03;;;;;;;18.30;14.77;;;19.50;99.90;;;19.39;100.00;96942.38;5032926;28;20160;-45
2022/08/19 08:52:35;;;;;;;20.27;15.48;;;19.50;99.90;;;19.39;100.00;96936.19;5029045;28;20036;-45
2022/08/19 08:55:08;;;;;;;22.00;16.37;;;19.60;99.90;;;19.37;100.00;96940.81;5017360;28;20075;-47
2022/08/19 08:57:54;;;;;;;20.55;16.48;;;19.50;99.90;;;19.35;100.00;96937.41;5033758;28;20029;-45
2022/08/19 09:00:40;;;;;;;21.73;17.15;;;19.50;99.90;;;19.29;100.00;96944.09;5033442;28;20409;-49
2022/08/19 09:03:25;;;;;;;20.90;15.70;;;19.50;99.90;;;19.27;100.00;96943.34;5032929;28;20069;-47
2022/08/19 09:06:07;;;;;;;22.85;14.98;;;19.40;99.90;;;19.23;100.00;96948.09;4998244;28;20386;-45
2022/08/19 09:08:46;;;;;;;19.63;15.40;;;19.40;99.90;;;19.18;100.00;96947.59;5031840;28;20038;-45
2022/08/19 09:11:30;;;;;;;20.85;16.15;;;19.30;99.90;;;19.18;100.00;96952.09;5016035;28;20382;-50
2022/08/19 09:14:04;;;;;;;18.88;16.58;;;19.30;99.90;;;19.19;100.00;96943.13;5033456;28;20412;-44
2022/08/19 09:16:30;;;;;;;21.73;16.33;;;19.30;99.90;;;19.22;100.00;96946.41;5034069;28;20033;-45
2022/08/19 09:19:05;;;;;;;21.40;17.00;;;19.40;99.90;;;19.33;100.00;96948.22;5031835;28;20021;-45
2022/08/19 09:21:30;;;;;;;19.48;14.73;;;19.50;99.90;;;19.47;100.00;96955.16;5031765;28;20021;-47
2022/08/19 09:23:57;;;;;;;21.92;14.77;;;19.60;99.90;;;19.58;100.00;96959.63;5033314;28;20024;-45
2022/08/19 09:26:24;;;;;;;18.77;13.52;;;19.70;99.90;;;19.70;100.00;96963.13;5032166;28;20052;-49
2022/08/19 09:28:52;;;;;;;17.10;13.98;;;19.80;99.90;;;19.78;100.00;96955.38;5031867;28;20025;-45
2022/08/19 09:31:25;;;;;;;17.38;14.13;;;19.90;99.90;;;19.89;100.00;96954.50;5031442;28;20040;-47
2022/08/19 09:33:51;;;;;;;20.40;14.15;;;20.00;99.90;;;19.99;100.00;96953.63;5016697;28;20037;-45
2022/08/19 09:36:19;;;;;;;16.98;13.93;;;20.10;99.90;;;20.13;100.00;96957.81;5016690;28;20035;-45
2022/08/19 09:38:45;;;;;;;18.92;13.15;;;20.30;99.90;;;20.30;100.00;96956.41;5032468;28;21020;-47
2022/08/19 09:41:17;;;;;;;17.52;12.90;;;20.40;99.90;;;20.46;100.00;96953.31;5031658;28;20508;-49
2022/08/19 09:43:46;;;;;;;16.73;12.77;;;20.60;99.90;;;20.60;100.00;96958.34;5032789;28;20059;-49
2022/08/19 09:46:12;;;;;;;16.02;12.38;;;20.80;99.90;;;20.73;99.62;96958.19;5031144;28;20496;-45
2022/08/19 09:48:40;;;;;;;18.50;12.00;;;20.90;99.90;;;20.86;98.63;96965.19;5031748;28;20045;-45
2022/08/19 09:51:10;;;;;;;14.18;11.70;;;21.00;99.90;;;20.94;97.89;96965.34;5029614;28;20064;-48
2022/08/19 09:53:37;;;;;;;14.68;10.95;;;21.10;99.90;;;20.91;97.24;96947.72;5014600;28;20037;-46
2022/08/19 09:56:06;;;;;;;18.65;12.38;;;21.10;99.90;;;20.90;96.39;96955.88;5031631;28;20033;-45
2022/08/19 09:58:33;;;;;;;13.18;9.77;;;21.10;99.90;;;20.94;96.60;96968.03;5033652;28;20038;-46
2022/08/19 10:01:01;;;;;;;14.43;10.35;;;21.10;99.90;;;20.96;96.36;96969.63;5018920;28;20017;-45
2022/08/19 10:03:29;;;;;;;12.52;10.18;;;21.10;99.90;;;20.94;96.51;96976.06;5035500;28;20313;-45
2022/08/19 10:05:57;;;;;;;15.60;11.02;;;21.10;99.90;;;20.90;95.83;96966.59;5035637;28;20099;-47
2022/08/19 10:08:29;;;;;;;18.08;12.15;;;21.10;99.90;;;20.86;94.40;96965.19;5035589;28;20047;-44
2022/08/19 10:10:55;;;;;;;12.30;10.10;;;21.00;99.90;;;20.82;95.15;96961.03;5037140;28;20393;-45
2022/08/19 10:13:25;;;;;;;15.25;10.43;;;21.00;99.90;;;20.86;95.02;96963.34;5035432;28;20037;-45
2022/08/19 10:15:54;;;;;;;16.13;11.52;;;21.00;99.90;;;20.91;95.09;96961.13;5036749;28;20021;-49
2022/08/19 10:18:21;;;;;;;13.65;10.90;;;21.10;99.90;;;20.98;93.73;96969.50;5033176;28;20103;-48
2022/08/19 10:20:49;;;;;;;17.17;10.43;;;21.10;99.90;;;21.02;94.07;96960.19;5036369;28;20481;-46
2022/08/19 10:23:15;;;;;;;14.15;9.85;;;21.20;99.90;;;21.08;93.25;96956.97;5034086;28;20053;-46
2022/08/19 10:25:42;;;;;;;13.13;10.30;;;21.20;99.90;;;21.16;92.96;96964.38;5034089;28;20323;-45
2022/08/19 10:28:08;;;;;;;15.63;10.07;;;21.30;99.90;;;21.24;92.67;96961.00;5036115;28;20108;-45